Date,TemperatureHighF,TemperatureAvgF,TemperatureLowF,DewpointHighF,DewpointAvgF,DewpointLowF,HumidityHigh,HumidityAvg,HumidityLow,PressureMaxIn,PressureMinIn,WindSpeedMaxMPH,WindSpeedAvgMPH,GustSpeedMaxMPH,PrecipitationSumIn
2013-1-10,74,64,61,68,63,60,99,96,79,30.31,30.26,4,0,9,0.01
2013-1-11,83,70,58,72,65,58,100,87,56,30.30,30.18,9,1,9,0.01
2013-1-12,84,69,58,73,65,58,100,88,58,30.24,30.11,8,0,8,0.01
2013-1-13,84,69,56,71,64,56,100,86,54,30.20,30.09,11,1,11,0.00
2013-1-14,83,69,58,70,65,58,100,88,61,30.22,30.14,9,1,9,0.01
2013-1-15,83,70,60,72,66,60,100,89,63,30.19,30.08,9,1,9,0.00
2013-1-16,84,70,59,71,64,58,100,83,47,30.14,30.03,11,1,11,0.01
2013-1-17,82,66,55,72,62,48,100,85,67,30.13,29.97,24,5,24,0.01
2013-1-18,68,57,44,64,51,39,94,81,74,30.32,30.13,17,4,17,0.03
2013-1-19,77,67,58,66,61,56,93,83,62,30.33,30.17,10,2,12,0.00
2013-1-20,76,65,58,68,61,55,98,89,71,30.22,30.08,10,2,10,0.00
2013-1-21,77,66,58,66,61,57,97,86,66,30.13,30.02,6,1,6,0.00
2013-1-22,67,60,49,58,50,43,96,68,48,30.28,30.09,13,2,13,0.00
2013-1-23,48,45,44,44,43,40,95,91,80,30.34,30.33,1,0,6,0.00
2013-1-24,77,58,42,56,48,41,99,76,41,30.37,30.24,11,1,11,0.00
2013-1-25,78,61,48,61,53,47,99,78,43,30.34,30.19,9,1,9,0.00
2013-1-26,79,61,45,62,53,44,99,77,48,30.31,30.19,10,1,10,0.00
2013-1-28,81,74,67,69,67,64,94,78,65,30.38,30.26,14,1,14,0.00
2013-1-29,86,73,62,72,67,61,99,84,55,30.29,30.13,13,1,13,0.00
2013-1-30,85,75,66,69,67,65,98,77,53,30.15,29.90,22,5,22,0.00
2013-1-31,73,60,44,69,48,33,96,69,32,30.26,29.91,16,4,22,0.08
2013-2-1,66,43,37,43,39,35,97,87,44,30.35,30.25,2,0,7,0.00
2013-2-2,74,56,40,52,44,38,96,68,30,30.35,30.17,12,1,12,0.00
2013-2-3,73,57,41,55,46,39,98,71,38,30.23,30.07,19,2,19,0.00
2013-2-4,73,54,39,52,42,35,98,70,30,30.18,30.06,11,1,11,0.00
2013-2-5,78,59,41,57,50,41,100,76,42,30.14,30.02,14,1,14,0.00
2013-2-6,80,68,56,67,62,55,97,84,58,30.15,30.06,7,0,7,0.00
2013-2-7,83,73,60,67,64,60,99,77,54,30.11,29.89,18,3,18,0.00
2013-2-8,82,71,58,68,62,56,97,75,44,30.11,29.89,16,4,16,0.00
2013-2-9,77,63,54,62,57,53,99,83,56,30.24,30.10,11,2,12,0.00
2013-2-10,80,64,51,65,58,50,100,82,54,30.31,30.20,12,1,12,0.01
2013-2-11,84,70,56,67,62,55,99,79,48,30.25,30.09,16,3,16,0.00
2013-2-12,86,79,73,69,67,64,87,68,50,29.97,29.94,10,3,13,0.00
2013-2-13,88,75,65,73,69,63,96,84,52,29.99,29.82,23,6,23,0.41
2013-2-14,71,64,58,66,62,58,99,93,78,30.08,29.94,10,1,10,0.22
2013-2-15,72,60,53,62,57,53,98,90,61,30.11,29.97,11,2,11,0.03
2013-2-16,72,58,50,56,46,29,99,69,33,30.16,29.91,26,5,26,0.00
2013-2-17,56,45,34,34,25,16,100,49,21,30.38,30.16,20,3,20,0.00
2013-2-18,65,40,31,50,38,30,98,93,47,30.40,30.25,3,0,10,0.00
2013-2-19,80,63,45,61,53,45,100,73,42,30.26,30.07,16,3,16,0.00
2013-2-20,77,63,56,63,58,55,98,84,61,30.17,30.06,8,1,9,0.00
2013-2-21,85,68,56,69,62,54,97,83,48,30.14,30.02,8,1,11,0.00
2013-2-22,88,74,62,74,68,61,100,85,49,30.12,30.01,15,2,15,0.00
2013-2-23,90,79,72,72,70,66,95,76,48,30.04,29.88,19,5,19,0.00
2013-2-24,78,71,65,75,70,64,98,94,86,29.99,29.88,10,2,10,0.36
2013-2-25,72,69,66,70,68,65,98,97,96,29.96,29.82,2,0,1,0.01
2013-2-26,80,74,67,74,70,62,98,86,78,29.89,29.77,21,5,21,0.23
2013-2-27,77,68,63,65,60,54,92,77,46,30.00,29.88,12,3,12,0.00
2013-3-1,67,60,53,47,41,35,80,52,36,30.03,29.93,16,5,16,0.00
2013-3-2,63,53,41,42,37,29,84,56,29,30.06,29.96,25,5,25,0.00
2013-3-3,57,46,36,37,34,31,85,63,43,30.20,30.02,21,5,21,0.00
2013-3-4,67,48,31,41,34,26,96,63,25,30.27,30.15,14,1,14,0.00
2013-3-5,78,62,39,58,44,36,96,60,29,30.19,30.03,15,4,15,0.00
2013-3-6,71,62,49,63,43,29,92,55,25,30.17,29.94,21,7,21,0.00
2013-3-7,69,50,39,48,41,34,97,71,42,30.25,30.15,11,2,11,0.00
2013-3-8,76,52,40,52,45,39,99,82,29,30.25,30.14,9,1,11,0.00
2013-3-9,57,47,44,53,46,43,99,97,90,30.25,30.18,4,0,4,0.00
2013-3-10,80,75,52,61,59,52,99,58,46,30.22,30.12,12,3,12,0.00
2013-3-11,79,72,69,64,62,59,82,73,51,29.99,29.95,10,2,13,0.01
2013-3-12,72,68,60,70,64,58,97,89,79,30.04,29.90,16,5,17,0.17
2013-3-13,76,61,48,58,46,36,95,67,24,30.19,30.03,13,3,13,0.01
2013-3-14,69,54,42,47,40,33,96,64,29,30.30,30.18,15,3,15,0.00
2013-3-15,73,54,38,49,41,36,99,68,28,30.33,30.16,12,1,12,0.00
2013-3-16,81,61,42,52,45,41,100,64,26,30.23,30.06,12,2,12,0.00
2013-3-17,79,60,44,58,50,43,99,74,43,30.19,30.02,16,2,16,0.00
2013-3-19,89,79,67,66,62,57,89,60,36,30.02,29.90,9,2,9,0.00
2013-3-20,76,67,60,72,65,59,98,92,73,30.00,29.81,16,1,16,0.90
2013-3-21,73,60,49,59,49,37,98,74,27,30.00,29.85,15,3,15,0.01
2013-3-22,63,63,63,62,62,61,96,96,95,30.02,30.02,0,0,5,0.07
2013-3-23,88,72,63,76,68,62,99,89,60,30.02,29.78,16,2,16,0.10
2013-3-24,86,76,67,75,71,65,97,86,66,29.77,29.64,31,7,31,0.76
2013-3-25,75,67,55,69,50,32,93,61,22,30.06,29.72,17,5,21,0.00
2013-3-26,64,55,47,42,33,25,68,44,24,30.26,30.05,22,6,22,0.00
2013-3-27,60,46,39,38,35,32,82,65,38,30.34,30.25,13,2,13,0.00
2013-3-28,69,62,41,47,40,32,93,48,29,30.33,30.27,10,4,10,0.00
2013-3-29,43,42,41,42,41,40,96,95,95,30.33,30.30,0,0,0,0.00
2013-3-30,80,73,48,56,53,47,98,51,33,30.29,30.14,16,3,16,0.00
2013-3-31,76,65,61,59,56,54,85,72,51,30.22,30.14,20,2,20,0.00
2013-4-2,85,74,61,65,60,56,93,64,40,30.11,30.06,11,2,11,0.00
2013-4-3,85,70,57,70,64,56,99,82,52,30.12,29.98,13,1,13,0.22
2013-4-4,77,70,66,71,68,65,99,92,75,30.09,29.85,23,3,23,0.07
2013-4-5,78,70,59,70,65,57,95,86,68,30.01,29.82,13,4,14,0.19
2013-4-6,79,67,56,64,59,54,96,79,55,30.17,30.00,14,3,14,0.00
2013-4-7,63,60,56,61,58,55,96,94,91,30.17,30.08,6,1,6,0.00
2013-4-8,62,59,57,59,58,56,96,95,93,30.15,30.10,0,0,0,0.00
2013-4-10,82,72,72,71,67,-100,95,88,68,30.05,30.02,5,-21,10,0.00
2013-4-11,90,79,71,77,72,70,98,83,55,30.04,29.85,16,3,16,0.03
2013-4-12,88,81,74,76,72,-100,95,78,61,29.93,0.00,24,1,24,0.00
2013-4-13,66,65,64,62,62,62,90,88,87,30.01,30.01,0,0,0,0.00
2013-4-14,75,68,63,73,66,61,98,95,89,30.01,29.87,21,1,21,2.84
2013-4-15,92,76,66,72,67,65,98,78,47,30.10,29.93,10,1,10,0.00
2013-4-16,88,77,67,75,70,66,99,81,61,30.18,30.08,14,2,14,0.00
2013-4-19,93,83,73,76,73,68,97,74,49,30.05,29.92,21,5,21,0.01
2013-4-20,75,69,61,73,65,58,95,88,77,30.18,29.98,14,2,14,0.08
2013-4-21,75,66,62,72,63,59,98,92,88,30.18,30.10,8,2,8,0.19
2013-4-29,88,79,66,73,68,62,97,71,47,30.06,29.92,14,3,14,1.64
2013-4-30,90,75,66,74,69,65,99,84,48,30.04,29.94,12,1,12,0.24
2013-5-1,81,73,66,75,70,66,99,93,76,30.05,29.97,10,0,10,0.42
2013-5-2,78,72,67,74,70,67,99,95,83,30.00,29.84,12,1,12,1.62
2013-5-3,82,72,67,74,70,67,99,93,75,29.87,29.68,21,3,21,0.89
2013-5-4,85,75,69,75,71,68,99,88,62,29.80,29.69,12,1,14,0.21
2013-5-11,91,81,72,76,71,68,86,73,53,30.04,29.98,15,3,15,0.05
2013-5-12,75,72,70,70,68,67,94,90,86,30.04,29.96,5,0,5,0.00
2013-5-21,85,76,70,76,72,68,97,88,66,30.07,29.97,22,1,22,0.64
2013-5-22,85,72,68,77,70,67,99,95,72,30.00,29.95,6,0,6,0.07
2013-5-23,94,77,68,78,72,67,100,84,51,30.02,29.92,10,1,10,0.02
2013-5-24,70,69,69,69,68,67,98,96,94,30.02,29.98,4,0,4,0.00
2013-5-29,87,80,76,78,75,73,92,85,66,30.14,30.09,13,2,13,0.13
2013-5-30,87,78,72,78,74,71,96,88,67,30.16,30.07,14,2,14,0.44
2013-5-31,88,78,70,78,73,69,99,85,66,30.14,30.06,15,2,15,0.04
2013-6-3,92,82,74,79,76,74,99,84,58,30.02,29.89,14,2,14,0.02
2013-6-4,89,80,74,78,75,72,98,83,60,30.04,29.96,20,2,20,0.02
2013-6-5,89,78,73,80,75,71,99,93,69,30.04,29.94,10,1,14,1.43
2013-6-6,81,76,74,79,75,72,99,96,80,29.94,29.68,21,4,21,1.76
2013-6-7,81,77,75,76,75,74,96,92,85,29.92,29.77,16,5,16,0.01
2013-6-8,92,76,72,79,73,71,98,93,62,30.12,30.00,23,1,23,2.37
2013-6-9,92,80,71,80,75,71,100,85,61,30.14,30.04,12,1,12,0.01
2013-6-10,88,78,74,79,75,73,98,93,72,30.12,30.07,11,1,11,0.00
2013-6-11,91,75,73,76,74,72,98,97,63,30.11,30.02,18,1,18,1.30
2013-6-12,97,82,71,80,75,70,100,80,48,30.10,30.00,12,1,12,0.01
2013-6-14,94,94,92,75,73,70,56,50,47,29.88,29.84,13,5,14,0.00
2013-6-15,90,82,77,81,78,76,97,87,73,30.05,29.97,13,2,13,0.05
2013-6-16,90,83,79,82,78,77,97,87,69,30.11,30.04,13,1,13,1.14
2013-6-17,91,84,78,81,79,77,97,83,66,30.11,29.99,15,1,15,0.29
2013-6-20,81,77,75,76,75,73,97,94,78,30.11,30.07,6,1,6,0.13
2013-6-21,82,74,72,75,73,71,99,96,79,30.13,30.06,11,0,11,0.09
2013-6-22,87,75,72,80,74,71,99,95,73,30.14,30.08,7,0,7,0.00
2013-6-25,91,89,86,79,76,71,78,66,57,30.14,30.06,10,3,11,0.00
2013-6-26,95,91,86,80,78,76,81,66,59,30.09,30.05,8,2,9,0.05
2013-6-28,93,77,75,78,75,73,97,93,59,29.91,29.85,17,1,17,0.20
2013-6-29,78,76,75,77,75,74,97,97,96,29.90,29.84,7,1,7,0.00
2013-6-30,92,77,75,78,75,73,97,95,63,29.91,29.84,21,2,25,0.58
2013-7-1,75,75,75,74,74,74,97,97,95,29.93,29.89,9,2,10,0.00
2013-7-2,88,78,75,81,76,74,98,94,78,30.09,30.00,18,1,19,0.04
2013-7-3,89,84,80,82,79,77,94,86,75,30.14,30.11,15,2,15,0.42
2013-7-9,91,89,84,76,75,73,72,64,58,30.11,30.09,13,3,13,1.03
2013-7-10,90,85,83,80,78,75,89,80,61,30.09,30.06,5,1,7,0.09
2013-7-13,92,82,80,78,76,74,90,83,59,29.98,29.94,8,1,8,0.31
2013-7-15,90,86,80,80,78,76,89,76,67,30.14,30.05,10,2,0,0.01
2013-7-16,87,77,74,78,75,73,97,93,73,30.18,30.14,8,1,13,0.46
2013-7-17,75,74,74,74,74,73,97,97,97,30.18,30.17,0,0,0,0.00
2013-7-19,88,75,74,79,74,73,98,96,76,30.14,30.06,14,2,14,1.55
2013-7-20,92,79,74,81,76,73,99,92,63,30.13,30.07,11,1,11,0.01
2013-7-26,77,77,77,76,76,76,97,97,97,29.97,29.96,0,0,0,0.39
2013-8-20,94,85,79,79,77,75,95,78,57,30.12,30.02,12,1,12,0.01
2013-8-21,92,81,77,82,78,75,98,91,68,30.14,30.07,14,1,15,0.16
2013-8-22,78,78,77,78,77,76,99,98,98,30.11,30.06,2,0,2,0.00
2013-8-25,87,80,76,81,78,75,97,91,78,30.18,30.10,7,1,7,2.25